createdAt,value
2023-02-24T00:02:22.850Z,3.93
2023-02-24T00:04:50.913Z,3.40
2023-02-24T00:07:17.890Z,3.17
2023-02-24T00:09:44.672Z,4.80
2023-02-24T00:12:14.724Z,4.80
2023-02-24T00:14:44.149Z,4.57
2023-02-24T00:17:13.600Z,4.67
2023-02-24T00:19:40.051Z,4.03
2023-02-24T00:22:07.900Z,4.50
2023-02-24T00:24:35.187Z,4.43
2023-02-24T00:27:06.790Z,4.27
2023-02-24T00:29:36.740Z,4.27
2023-02-24T00:32:11.557Z,4.33
2023-02-24T00:34:38.127Z,4.40
2023-02-24T00:37:06.200Z,4.37
2023-02-24T00:39:33.814Z,4.27
2023-02-24T00:42:04.088Z,3.70
2023-02-24T00:44:32.377Z,4.07
2023-02-24T00:47:01.136Z,4.67
2023-02-24T00:49:28.483Z,4.67
2023-02-24T00:51:56.805Z,4.70
2023-02-24T00:54:26.681Z,4.07
2023-02-24T00:56:53.536Z,3.87
2023-02-24T00:59:23.072Z,3.60
2023-02-24T01:01:50.483Z,3.33
2023-02-24T01:04:18.934Z,3.23
2023-02-24T01:06:48.285Z,3.57
2023-02-24T01:09:18.794Z,3.77
2023-02-24T01:12:05.806Z,3.73
2023-02-24T01:14:33.809Z,3.73
2023-02-24T01:17:01.163Z,4.10
2023-02-24T01:19:30.939Z,4.50
2023-02-24T01:22:09.266Z,3.93
2023-02-24T01:24:41.080Z,4.00
2023-02-24T01:27:09.047Z,4.47
2023-02-24T01:29:38.798Z,4.07
2023-02-24T01:32:07.389Z,3.53
2023-02-24T01:34:34.652Z,4.70
2023-02-24T01:37:01.183Z,3.80
2023-02-24T01:39:27.783Z,3.60
2023-02-24T01:41:54.210Z,3.33
2023-02-24T01:44:58.751Z,3.40
2023-02-24T01:47:30.574Z,3.90
2023-02-24T01:49:57.820Z,3.97
2023-02-24T01:52:29.780Z,3.50
2023-02-24T01:55:02.305Z,3.77
2023-02-24T01:57:32.523Z,3.73
2023-02-24T02:00:16.067Z,3.70
2023-02-24T02:02:46.773Z,4.30
2023-02-24T02:05:14.262Z,4.00
2023-02-24T02:07:42.671Z,4.50
2023-02-24T02:10:10.757Z,4.60
2023-02-24T02:12:43.378Z,4.77
2023-02-24T02:15:12.664Z,4.80
2023-02-24T02:17:50.849Z,4.43
2023-02-24T02:20:41.592Z,4.70
2023-02-24T02:23:54.571Z,4.33
2023-02-24T02:26:40.390Z,4.50
2023-02-24T02:29:44.725Z,5.00
2023-02-24T02:32:51.205Z,4.90
2023-02-24T02:35:22.991Z,4.30
2023-02-24T02:37:55.502Z,4.30
2023-02-24T02:40:28.036Z,4.63
2023-02-24T02:42:59.399Z,4.30
2023-02-24T02:45:32.165Z,3.90
2023-02-24T02:48:05.950Z,4.13
2023-02-24T02:50:42.495Z,4.13
2023-02-24T02:53:14.017Z,4.70
2023-02-24T02:55:45.596Z,4.30
2023-02-24T02:58:17.298Z,4.97
2023-02-24T03:00:58.053Z,4.60
2023-02-24T03:03:27.201Z,4.93
2023-02-24T03:06:03.275Z,5.00
2023-02-24T03:08:36.396Z,4.43
2023-02-24T03:11:05.531Z,4.30
2023-02-24T03:13:36.911Z,4.67
2023-02-24T03:16:05.743Z,4.83
2023-02-24T03:18:35.503Z,4.43
2023-02-24T03:21:07.151Z,4.47
2023-02-24T03:23:37.338Z,4.47
2023-02-24T03:26:16.310Z,4.70
2023-02-24T03:28:53.001Z,4.67
2023-02-24T03:31:27.265Z,4.23
2023-02-24T03:34:00.093Z,4.63
2023-02-24T03:36:28.415Z,4.60
2023-02-24T03:38:57.548Z,4.50
2023-02-24T03:41:29.705Z,4.57
2023-02-24T03:43:58.180Z,4.90
2023-02-24T03:46:25.697Z,4.80
2023-02-24T03:48:58.999Z,4.50
2023-02-24T03:51:25.813Z,4.00
2023-02-24T03:54:10.317Z,4.80
2023-02-24T03:56:46.400Z,4.57
2023-02-24T03:59:27.249Z,4.50
2023-02-24T04:02:01.931Z,4.50
2023-02-24T04:04:42.087Z,4.60
2023-02-24T04:07:25.695Z,4.40
2023-02-24T04:10:02.224Z,4.63
2023-02-24T04:12:32.221Z,4.40
2023-02-24T04:15:10.021Z,4.30
2023-02-24T04:17:41.504Z,4.43
2023-02-24T04:20:15.019Z,4.70
2023-02-24T04:22:49.010Z,4.80
2023-02-24T04:25:23.698Z,4.07
2023-02-24T04:27:52.983Z,4.47
2023-02-24T04:30:20.019Z,4.60
2023-02-24T04:32:46.668Z,4.50
2023-02-24T04:35:16.413Z,4.73
2023-02-24T04:37:47.272Z,4.50
2023-02-24T04:40:21.237Z,4.17
2023-02-24T04:42:48.417Z,4.77
2023-02-24T04:45:16.818Z,4.43
2023-02-24T04:47:48.628Z,4.83
2023-02-24T04:50:22.079Z,4.13
2023-02-24T04:52:50.248Z,5.30
2023-02-24T04:55:16.965Z,4.60
2023-02-24T04:57:45.275Z,4.57
2023-02-24T05:00:20.137Z,4.33
2023-02-24T05:02:47.599Z,4.90
2023-02-24T05:05:14.545Z,4.47
2023-02-24T05:07:40.978Z,4.63
2023-02-24T05:10:07.997Z,4.60
2023-02-24T05:12:34.368Z,4.40
2023-02-24T05:15:01.507Z,4.53
2023-02-24T05:17:28.568Z,4.50
2023-02-24T05:20:13.219Z,4.40
2023-02-24T05:22:39.672Z,4.17
2023-02-24T05:25:07.476Z,4.90
2023-02-24T05:27:38.190Z,4.03
2023-02-24T05:30:09.009Z,4.50
2023-02-24T05:32:35.689Z,4.40
2023-02-24T05:35:02.507Z,5.03
2023-02-24T05:37:29.343Z,4.43
2023-02-24T05:39:55.886Z,4.60
2023-02-24T05:42:22.341Z,4.63
2023-02-24T05:44:49.138Z,4.40
2023-02-24T05:47:18.951Z,4.77
2023-02-24T05:49:47.255Z,3.97
2023-02-24T05:52:13.945Z,4.27
2023-02-24T05:54:43.285Z,4.80
2023-02-24T05:57:11.662Z,4.13
2023-02-24T05:59:38.606Z,4.10
2023-02-24T06:02:08.456Z,4.23
2023-02-24T06:04:39.675Z,3.80
2023-02-24T06:07:12.772Z,4.13
2023-02-24T06:09:42.148Z,3.97
2023-02-24T06:12:08.723Z,4.30
2023-02-24T06:14:35.202Z,4.17
2023-02-24T06:17:02.393Z,4.03
2023-02-24T06:19:31.226Z,4.40
2023-02-24T06:22:00.831Z,4.13
2023-02-24T06:24:28.478Z,3.93
2023-02-24T06:27:01.712Z,3.90
2023-02-24T06:29:30.147Z,4.43
2023-02-24T06:31:57.332Z,4.00
2023-02-24T06:34:25.509Z,3.90
2023-02-24T06:36:52.032Z,4.67
2023-02-24T06:39:19.137Z,4.40
2023-02-24T06:41:48.592Z,3.80
2023-02-24T06:44:15.016Z,4.53
2023-02-24T06:46:41.487Z,4.20
2023-02-24T06:49:09.193Z,4.00
2023-02-24T06:51:36.195Z,4.43
2023-02-24T06:54:02.584Z,4.23
2023-02-24T06:56:32.029Z,4.40
2023-02-24T06:58:58.800Z,4.00
2023-02-24T07:01:28.292Z,4.60
2023-02-24T07:04:16.916Z,4.10
2023-02-24T07:06:47.009Z,4.20
2023-02-24T07:09:15.828Z,4.67
2023-02-24T07:11:46.828Z,4.30
2023-02-24T07:14:13.887Z,4.67
2023-02-24T07:16:44.488Z,4.50
2023-02-24T07:19:13.385Z,5.50
2023-02-24T07:21:42.688Z,4.97
2023-02-24T07:24:12.658Z,5.20
2023-02-24T07:26:41.428Z,4.70
2023-02-24T07:29:10.617Z,5.50
2023-02-24T07:31:37.798Z,5.17
2023-02-24T07:34:05.653Z,18.33
2023-02-24T07:36:38.097Z,7.90
2023-02-24T07:39:08.443Z,5.67
2023-02-24T07:41:36.322Z,5.00
2023-02-24T07:44:02.782Z,5.63
2023-02-24T07:46:30.149Z,5.10
2023-02-24T07:48:58.432Z,5.50
2023-02-24T07:51:27.085Z,5.20
2023-02-24T07:53:58.173Z,5.90
2023-02-24T07:56:26.580Z,5.23
2023-02-24T07:58:58.473Z,5.47
2023-02-24T08:01:27.417Z,5.63
2023-02-24T08:03:56.894Z,5.10
2023-02-24T08:06:30.870Z,5.17
2023-02-24T08:09:15.907Z,5.37
2023-02-24T08:11:45.268Z,5.50
2023-02-24T08:14:13.342Z,7.93
2023-02-24T08:16:40.593Z,7.53
2023-02-24T08:19:12.335Z,6.53
2023-02-24T08:21:40.668Z,6.27
2023-02-24T08:24:16.824Z,5.70
2023-02-24T08:26:44.605Z,5.17
2023-02-24T08:29:12.250Z,6.13
2023-02-24T08:31:38.918Z,6.07
2023-02-24T08:34:05.432Z,5.93
2023-02-24T08:36:32.613Z,6.67
2023-02-24T08:38:59.035Z,6.90
2023-02-24T08:41:44.051Z,6.13
2023-02-24T08:44:12.921Z,6.10
2023-02-24T08:46:40.055Z,6.60
2023-02-24T08:49:10.071Z,6.03
2023-02-24T08:51:43.021Z,6.17
2023-02-24T08:54:14.577Z,6.60
2023-02-24T08:56:48.364Z,6.40
2023-02-24T08:59:37.096Z,6.93
2023-02-24T09:02:17.906Z,6.83
2023-02-24T09:04:45.159Z,6.70
2023-02-24T09:07:17.196Z,7.20
2023-02-24T09:09:44.662Z,8.10
2023-02-24T09:12:21.009Z,7.67
2023-02-24T09:14:49.101Z,7.60
2023-02-24T09:17:19.835Z,8.60
2023-02-24T09:20:06.709Z,8.03
2023-02-24T09:22:56.475Z,8.73
2023-02-24T09:25:25.075Z,10.03
2023-02-24T09:27:55.186Z,9.87
2023-02-24T09:30:35.237Z,9.60
2023-02-24T09:33:06.440Z,9.73
2023-02-24T09:35:36.078Z,9.90
2023-02-24T09:38:05.169Z,11.30
2023-02-24T09:40:39.673Z,10.87
2023-02-24T09:43:16.875Z,11.23
2023-02-24T09:45:52.657Z,11.77
2023-02-24T09:48:29.841Z,12.17
2023-02-24T09:51:05.517Z,12.20
2023-02-24T09:53:41.090Z,11.50
2023-02-24T09:56:21.279Z,11.33
2023-02-24T09:58:54.962Z,10.87
2023-02-24T10:05:07.835Z,11.67
2023-02-24T10:07:38.581Z,11.60
2023-02-24T10:10:22.280Z,11.00
2023-02-24T10:13:00.394Z,10.63
2023-02-24T10:15:50.205Z,10.90
2023-02-24T10:18:28.171Z,10.47
2023-02-24T10:21:02.201Z,10.93
2023-02-24T10:23:44.310Z,10.53
2023-02-24T10:26:30.846Z,10.33
2023-02-24T10:29:08.242Z,10.17
2023-02-24T10:31:45.504Z,10.57
2023-02-24T10:34:19.234Z,10.73
2023-02-24T10:36:49.558Z,10.50
2023-02-24T10:39:19.699Z,9.77
2023-02-24T10:41:48.437Z,10.30
2023-02-24T10:44:23.347Z,10.30
2023-02-24T10:47:10.548Z,10.33
2023-02-24T10:49:44.113Z,9.43
2023-02-24T10:52:32.561Z,10.07
2023-02-24T10:55:07.729Z,10.93
2023-02-24T10:57:58.125Z,9.60
2023-02-24T11:00:50.672Z,10.00
2023-02-24T11:03:34.948Z,9.00
2023-02-24T11:06:19.529Z,9.57
2023-02-24T11:09:20.010Z,9.33
2023-02-24T11:12:05.896Z,8.87
2023-02-24T11:14:57.702Z,9.47
2023-02-24T11:17:26.152Z,8.93
2023-02-24T11:20:03.354Z,8.93
2023-02-24T11:22:33.718Z,8.77
2023-02-24T11:25:06.615Z,8.80
2023-02-24T11:27:33.540Z,8.63
2023-02-24T11:30:21.469Z,7.60
2023-02-24T11:33:11.467Z,8.33
2023-02-24T11:35:44.484Z,8.13
2023-02-24T11:38:27.059Z,8.10
2023-02-24T11:41:02.268Z,7.83
2023-02-24T11:43:31.804Z,8.40
2023-02-24T11:46:04.862Z,8.40
2023-02-24T11:48:37.036Z,8.70
2023-02-24T11:51:06.854Z,7.83
2023-02-24T11:53:36.408Z,8.53
2023-02-24T11:56:09.509Z,9.53
2023-02-24T11:58:43.516Z,8.57
2023-02-24T12:01:16.363Z,9.03
2023-02-24T12:03:54.742Z,8.97
2023-02-24T12:06:29.940Z,8.17
2023-02-24T12:09:01.346Z,9.03
2023-02-24T12:11:38.079Z,9.40
2023-02-24T12:14:18.716Z,8.63
2023-02-24T12:16:52.568Z,7.97
2023-02-24T12:19:27.178Z,10.47
2023-02-24T12:22:04.832Z,9.03
2023-02-24T12:24:35.085Z,9.60
2023-02-24T12:27:10.474Z,9.90
2023-02-24T12:30:05.632Z,10.50
2023-02-24T12:32:52.137Z,9.77
2023-02-24T12:35:31.248Z,9.73
2023-02-24T12:38:10.118Z,8.60
2023-02-24T12:40:45.102Z,8.33
2023-02-24T12:43:25.357Z,8.63
2023-02-24T12:45:58.945Z,8.40
2023-02-24T12:48:47.033Z,8.50
2023-02-24T12:51:25.692Z,8.30
2023-02-24T12:53:59.194Z,9.07
2023-02-24T12:56:37.788Z,8.30
2023-02-24T12:59:09.415Z,7.83
2023-02-24T13:01:45.765Z,8.50
2023-02-24T13:04:28.795Z,8.17
2023-02-24T13:07:09.073Z,7.63
2023-02-24T13:09:44.646Z,7.90
2023-02-24T13:12:20.622Z,10.33
2023-02-24T13:14:47.866Z,9.60
2023-02-24T13:17:21.557Z,10.93
2023-02-24T13:19:51.816Z,11.53
2023-02-24T13:22:27.750Z,11.83
2023-02-24T13:25:18.355Z,11.73
2023-02-24T13:27:55.678Z,12.77
2023-02-24T13:30:27.125Z,12.80
2023-02-24T13:33:02.737Z,12.40
2023-02-24T13:35:32.832Z,11.50
2023-02-24T13:38:10.476Z,12.63
2023-02-24T13:40:37.360Z,13.20
2023-02-24T13:43:04.340Z,12.63
2023-02-24T13:45:31.630Z,13.03
2023-02-24T13:48:20.223Z,12.60
2023-02-24T13:51:07.442Z,13.10
2023-02-24T13:53:50.155Z,13.13
2023-02-24T13:56:29.130Z,13.73
2023-02-24T13:59:11.323Z,13.27
2023-02-24T14:01:47.585Z,13.47
2023-02-24T14:04:17.248Z,14.33
2023-02-24T14:06:49.583Z,15.13
2023-02-24T14:09:21.926Z,14.40
2023-02-24T14:11:51.330Z,14.60
2023-02-24T14:14:18.620Z,15.03
2023-02-24T14:16:50.013Z,13.97
2023-02-24T14:19:18.151Z,15.10
2023-02-24T14:21:51.242Z,14.97
2023-02-24T14:24:18.398Z,14.77
2023-02-24T14:26:47.283Z,16.07
2023-02-24T14:29:17.527Z,13.77
2023-02-24T14:31:47.635Z,14.17
2023-02-24T14:34:19.840Z,14.53
2023-02-24T14:36:47.997Z,14.53
2023-02-24T14:39:16.835Z,15.07
2023-02-24T14:41:44.572Z,14.73
2023-02-24T14:44:23.169Z,15.77
2023-02-24T14:46:51.707Z,15.57
2023-02-24T14:49:21.569Z,15.47
2023-02-24T14:51:54.160Z,17.07
2023-02-24T14:54:32.395Z,16.63
2023-02-24T14:56:59.955Z,15.77
2023-02-24T14:59:31.516Z,17.53
2023-02-24T15:01:58.906Z,16.93
2023-02-24T15:04:33.168Z,17.47
2023-02-24T15:07:01.280Z,16.87
2023-02-24T15:09:33.992Z,18.20
2023-02-24T15:12:08.918Z,18.00
2023-02-24T15:14:35.389Z,16.30
2023-02-24T15:17:07.797Z,15.97
2023-02-24T15:19:36.580Z,17.50
2023-02-24T15:22:03.465Z,16.43
2023-02-24T15:24:32.472Z,16.00
2023-02-24T15:27:01.413Z,15.70
2023-02-24T15:29:30.070Z,15.60
2023-02-24T15:31:58.256Z,14.87
2023-02-24T15:34:28.232Z,15.63
2023-02-24T15:37:00.513Z,14.63
2023-02-24T15:39:30.504Z,14.43
2023-02-24T15:42:08.279Z,13.73
2023-02-24T15:44:36.066Z,14.83
2023-02-24T15:47:20.065Z,14.93
2023-02-24T15:49:46.465Z,15.30
2023-02-24T15:52:12.922Z,14.03
2023-02-24T15:54:41.629Z,14.30
2023-02-24T15:57:11.937Z,13.80
2023-02-24T15:59:39.755Z,14.50
2023-02-24T16:02:12.613Z,14.80
2023-02-24T16:04:39.058Z,14.87
2023-02-24T16:07:09.537Z,15.00
2023-02-24T16:09:39.974Z,15.13
2023-02-24T16:12:12.820Z,14.90
2023-02-24T16:14:40.342Z,17.23
2023-02-24T16:17:09.379Z,15.07
2023-02-24T16:19:37.180Z,15.10
2023-02-24T16:22:03.803Z,15.20
2023-02-24T16:24:30.374Z,15.17
2023-02-24T16:26:56.836Z,15.33
2023-02-24T16:29:24.027Z,15.83
2023-02-24T16:31:50.716Z,15.40
2023-02-24T16:34:17.404Z,16.53
2023-02-24T16:36:43.851Z,14.97
2023-02-24T16:39:13.136Z,15.10
2023-02-24T16:41:39.659Z,16.63
2023-02-24T16:44:06.122Z,17.33
2023-02-24T16:46:36.875Z,16.07
2023-02-24T16:49:07.822Z,14.00
2023-02-24T16:51:34.611Z,16.43
2023-02-24T16:54:01.626Z,15.60
2023-02-24T16:56:28.060Z,13.00
2023-02-24T16:58:54.442Z,13.70
2023-02-24T17:01:21.209Z,14.83
2023-02-24T17:03:50.972Z,12.87
2023-02-24T17:06:17.571Z,13.80
2023-02-24T17:08:45.580Z,14.53
2023-02-24T17:11:14.330Z,13.20
2023-02-24T17:13:41.215Z,7.63
2023-02-24T17:16:07.732Z,8.17
2023-02-24T17:18:34.119Z,6.20
2023-02-24T17:21:01.677Z,5.10
2023-02-24T17:23:28.169Z,6.10
2023-02-24T17:25:58.112Z,6.30
2023-02-24T17:28:26.185Z,6.43
2023-02-24T17:30:52.866Z,6.37
2023-02-24T17:33:19.568Z,5.73
2023-02-24T17:35:47.890Z,4.13
2023-02-24T17:38:16.221Z,5.20
2023-02-24T17:40:43.629Z,4.43
2023-02-24T17:43:10.094Z,3.77
2023-02-24T17:45:41.945Z,3.70
2023-02-24T17:48:08.405Z,3.63
2023-02-24T17:50:34.841Z,3.90
2023-02-24T17:53:01.316Z,4.23
2023-02-24T17:55:28.381Z,4.23
2023-02-24T17:57:57.106Z,4.27
2023-02-24T18:00:26.036Z,4.57
2023-02-24T18:02:52.727Z,4.93
2023-02-24T18:05:19.258Z,4.67
2023-02-24T18:07:45.700Z,4.97
2023-02-24T18:10:13.029Z,5.53
2023-02-24T18:12:40.107Z,6.33
2023-02-24T18:15:11.117Z,6.03
2023-02-24T18:17:37.921Z,6.10
2023-02-24T18:20:05.334Z,6.57
2023-02-24T18:22:31.746Z,7.07
2023-02-24T18:24:58.734Z,6.30
2023-02-24T18:27:25.152Z,7.03
2023-02-24T18:29:52.952Z,6.47
2023-02-24T18:32:19.888Z,6.87
2023-02-24T18:34:46.582Z,6.40
2023-02-24T18:37:13.998Z,7.00
2023-02-24T18:39:40.547Z,6.60
2023-02-24T18:42:07.044Z,6.63
2023-02-24T18:44:33.454Z,6.40
2023-02-24T18:47:00.569Z,6.70
2023-02-24T18:49:27.121Z,6.47
2023-02-24T18:51:53.510Z,6.30
2023-02-24T18:54:20.011Z,5.67
2023-02-24T18:56:46.427Z,6.10
2023-02-24T18:59:12.800Z,6.17
2023-02-24T19:01:39.875Z,6.90
2023-02-24T19:04:08.029Z,6.50
2023-02-24T19:06:35.524Z,6.77
2023-02-24T19:09:05.444Z,5.70
2023-02-24T19:11:32.590Z,6.23
2023-02-24T19:13:59.970Z,6.50
2023-02-24T19:16:26.777Z,6.80
2023-02-24T19:18:55.675Z,6.30
2023-02-24T19:21:23.536Z,6.30
2023-02-24T19:23:50.362Z,6.17
2023-02-24T19:26:18.691Z,6.17
2023-02-24T19:28:45.123Z,6.27
2023-02-24T19:31:13.649Z,6.77
2023-02-24T19:33:40.159Z,7.43
2023-02-24T19:36:07.309Z,7.50
2023-02-24T19:38:34.400Z,6.97
2023-02-24T19:41:01.239Z,4.27
2023-02-24T19:43:27.798Z,4.63
2023-02-24T19:45:54.237Z,4.63
2023-02-24T19:48:20.670Z,4.03
2023-02-24T19:50:47.127Z,4.47
2023-02-24T19:53:13.738Z,4.00
2023-02-24T19:55:40.960Z,4.17
2023-02-24T19:58:07.340Z,4.17
2023-02-24T20:00:33.774Z,4.60
2023-02-24T20:03:00.225Z,3.73
2023-02-24T20:05:26.628Z,4.40
2023-02-24T20:07:55.190Z,4.50
2023-02-24T20:10:21.857Z,4.47
2023-02-24T20:12:49.004Z,4.20
2023-02-24T20:15:15.516Z,4.83
2023-02-24T20:17:44.513Z,4.57
2023-02-24T20:20:12.332Z,4.23
2023-02-24T20:22:38.817Z,5.20
2023-02-24T20:25:06.991Z,5.00
2023-02-24T20:27:33.480Z,4.67
2023-02-24T20:30:01.425Z,5.10
2023-02-24T20:32:28.062Z,4.90
2023-02-24T20:34:54.564Z,5.17
2023-02-24T20:37:21.497Z,5.70
2023-02-24T20:39:47.974Z,5.67
2023-02-24T20:42:14.471Z,5.60
2023-02-24T20:44:40.962Z,5.50
2023-02-24T20:47:10.651Z,5.27
2023-02-24T20:49:38.532Z,6.00
2023-02-24T20:52:05.230Z,5.40
2023-02-24T20:54:31.741Z,5.10
2023-02-24T20:56:59.474Z,5.23
2023-02-24T20:59:25.950Z,5.87
2023-02-24T21:01:52.373Z,5.40
2023-02-24T21:04:21.565Z,5.20
2023-02-24T21:06:53.280Z,5.73
2023-02-24T21:09:19.866Z,5.80
2023-02-24T21:11:49.493Z,5.83
2023-02-24T21:14:16.533Z,6.80
2023-02-24T21:16:45.232Z,7.20
2023-02-24T21:19:11.768Z,6.90
2023-02-24T21:21:39.186Z,8.40
2023-02-24T21:24:06.542Z,7.50
2023-02-24T21:26:34.269Z,6.20
2023-02-24T21:29:00.682Z,8.87
2023-02-24T21:31:29.374Z,8.90
2023-02-24T21:33:55.926Z,8.60
2023-02-24T21:36:27.239Z,6.07
2023-02-24T21:38:54.744Z,3.77
2023-02-24T21:41:25.157Z,3.63
2023-02-24T21:43:55.602Z,5.17
2023-02-24T21:46:25.237Z,5.57
2023-02-24T21:48:54.010Z,5.37
2023-02-24T21:51:24.739Z,5.37
2023-02-24T21:53:54.254Z,5.00
2023-02-24T21:56:24.111Z,5.60
2023-02-24T21:58:53.231Z,5.97
2023-02-24T22:01:25.076Z,5.73
2023-02-24T22:03:52.776Z,6.03
2023-02-24T22:06:19.463Z,6.10
2023-02-24T22:08:46.125Z,5.33
2023-02-24T22:11:15.198Z,5.47
2023-02-24T22:13:43.568Z,5.70
2023-02-24T22:16:22.560Z,6.23
2023-02-24T22:18:52.477Z,5.17
2023-02-24T22:21:21.297Z,7.10
2023-02-24T22:23:50.172Z,6.90
2023-02-24T22:26:17.170Z,7.30
2023-02-24T22:28:46.346Z,6.40
2023-02-24T22:31:15.938Z,6.10
2023-02-24T22:33:43.537Z,5.70
2023-02-24T22:36:12.393Z,5.73
2023-02-24T22:38:39.508Z,5.63
2023-02-24T22:41:08.421Z,7.20
2023-02-24T22:43:35.016Z,6.47
2023-02-24T22:46:04.324Z,6.13
2023-02-24T22:48:31.567Z,6.43
2023-02-24T22:51:00.492Z,6.43
2023-02-24T22:53:28.507Z,6.63
2023-02-24T22:55:56.090Z,7.10
2023-02-24T22:58:23.726Z,8.00
2023-02-24T23:00:51.899Z,7.73
2023-02-24T23:03:20.991Z,6.77
2023-02-24T23:05:54.570Z,7.77
2023-02-24T23:08:21.754Z,7.07
2023-02-24T23:10:48.149Z,7.83
2023-02-24T23:13:14.792Z,7.83
2023-02-24T23:15:41.216Z,8.30
2023-02-24T23:18:08.570Z,8.47
2023-02-24T23:20:35.824Z,8.27
2023-02-24T23:23:02.279Z,9.63
2023-02-24T23:25:29.326Z,7.13
2023-02-24T23:27:55.782Z,8.47
2023-02-24T23:30:22.454Z,7.60
2023-02-24T23:32:48.892Z,8.60
2023-02-24T23:35:15.549Z,8.43
2023-02-24T23:37:42.704Z,9.37
2023-02-24T23:40:10.597Z,10.07
2023-02-24T23:42:37.362Z,10.93
2023-02-24T23:45:04.649Z,10.53
2023-02-24T23:47:31.125Z,9.57
2023-02-24T23:49:58.199Z,10.07
2023-02-24T23:52:24.675Z,10.80
2023-02-24T23:54:52.168Z,7.30
2023-02-24T23:57:18.797Z,9.47
2023-02-24T23:59:45.297Z,8.90
